Time;durP1;ratioP1;P1;durP2;ratioP2;P2;SDS_P1;SDS_P2;PMS_P1;PMS_P2;Temp;Humidity;BMP_temperature;BMP_pressure;BME280_temperature;BME280_humidity;BME280_pressure;Samples;Min_cycle;Max_cycle;Signal;HPM_P1;HPM_P2
2023/07/11 00:01:44;;;;;;;3.80;2.40;;;;;;;;;;5094592;28;20103;-60
2023/07/11 00:04:10;;;;;;;3.05;2.08;;;;;;;;;;5113585;28;20024;-60
2023/07/11 00:06:36;;;;;;;2.92;1.90;;;;;;;;;;5100842;28;20024;-60
2023/07/11 00:09:02;;;;;;;3.10;2.58;;;;;;;;;;5083524;28;20033;-60
2023/07/11 00:11:28;;;;;;;2.50;1.95;;;;;;;;;;5083153;28;20016;-60
2023/07/11 00:13:55;;;;;;;5.22;2.55;;;;;;;;;;5085893;28;20061;-60
2023/07/11 00:16:21;;;;;;;3.97;2.85;;;;;;;;;;5092878;28;20047;-60
2023/07/11 00:18:48;;;;;;;2.83;2.05;;;;;;;;;;5092833;28;20477;-60
2023/07/11 00:21:13;;;;;;;3.25;1.90;;;;;;;;;;5088367;28;20076;-60
2023/07/11 00:23:41;;;;;;;4.57;1.88;;;;;;;;;;5092836;28;20111;-60
2023/07/11 00:26:07;;;;;;;3.70;2.33;;;;;;;;;;5090704;28;20031;-60
2023/07/11 00:28:33;;;;;;;3.88;2.40;;;;;;;;;;5092613;28;20381;-60
2023/07/11 00:30:59;;;;;;;3.13;1.83;;;;;;;;;;5091274;28;20436;-60
2023/07/11 00:33:25;;;;;;;3.22;2.35;;;;;;;;;;5091504;28;20024;-60
2023/07/11 00:35:52;;;;;;;4.72;2.63;;;;;;;;;;5092646;28;20093;-60
2023/07/11 00:38:17;;;;;;;4.63;2.25;;;;;;;;;;5092552;28;20536;-60
2023/07/11 00:40:45;;;;;;;3.67;2.55;;;;;;;;;;5091751;28;20112;-60
2023/07/11 00:43:12;;;;;;;3.55;2.13;;;;;;;;;;5081806;28;20374;-61
2023/07/11 00:45:57;;;;;;;3.17;2.13;;;;;;;;;;5076251;28;20535;-60
2023/07/11 00:48:23;;;;;;;5.35;2.67;;;;;;;;;;5092310;28;20425;-60
2023/07/11 00:50:50;;;;;;;5.97;2.70;;;;;;;;;;5091145;28;20044;-60
2023/07/11 00:53:17;;;;;;;4.13;2.33;;;;;;;;;;5088072;28;20058;-60
2023/07/11 00:55:43;;;;;;;2.95;2.10;;;;;;;;;;5092017;28;20077;-60
2023/07/11 00:58:09;;;;;;;3.22;2.63;;;;;;;;;;5092319;28;20093;-60
2023/07/11 01:00:35;;;;;;;4.32;3.40;;;;;;;;;;5080703;28;20020;-60
2023/07/11 01:03:01;;;;;;;3.22;2.53;;;;;;;;;;5092342;28;20020;-60
2023/07/11 01:05:27;;;;;;;4.03;2.30;;;;;;;;;;5092508;28;20028;-60
2023/07/11 01:07:53;;;;;;;4.05;2.85;;;;;;;;;;5080046;28;20073;-60
2023/07/11 01:10:19;;;;;;;3.88;2.67;;;;;;;;;;5072438;28;20496;-60
2023/07/11 01:12:45;;;;;;;3.83;2.97;;;;;;;;;;5092270;28;20031;-60
2023/07/11 01:15:12;;;;;;;4.03;3.20;;;;;;;;;;5091468;28;20039;-60
2023/07/11 01:17:38;;;;;;;3.45;2.72;;;;;;;;;;5077869;28;20028;-59
2023/07/11 01:20:07;;;;;;;3.20;2.08;;;;;;;;;;5074879;28;20028;-59
2023/07/11 01:22:34;;;;;;;4.20;3.00;;;;;;;;;;5091193;28;20536;-60
2023/07/11 01:25:08;;;;;;;4.45;2.78;;;;;;;;;;5091852;28;20350;-60
2023/07/11 01:27:35;;;;;;;4.32;3.20;;;;;;;;;;5091744;28;20020;-60
2023/07/11 01:30:04;;;;;;;3.38;2.67;;;;;;;;;;5092032;28;20016;-60
2023/07/11 01:32:30;;;;;;;3.30;2.20;;;;;;;;;;5089933;28;20073;-60
2023/07/11 01:34:56;;;;;;;4.50;2.65;;;;;;;;;;5074629;28;20115;-60
2023/07/11 01:37:22;;;;;;;3.40;2.60;;;;;;;;;;5090063;28;20114;-60
2023/07/11 01:39:48;;;;;;;3.95;3.10;;;;;;;;;;5091375;28;20048;-60
2023/07/11 01:42:14;;;;;;;4.07;2.75;;;;;;;;;;5079981;28;20482;-60
2023/07/11 01:44:40;;;;;;;4.80;2.78;;;;;;;;;;5090356;28;20035;-60
2023/07/11 01:47:07;;;;;;;4.18;3.15;;;;;;;;;;5088459;28;20023;-60
2023/07/11 01:49:33;;;;;;;5.72;3.08;;;;;;;;;;5075422;28;20028;-60
2023/07/11 01:52:14;;;;;;;3.47;2.83;;;;;;;;;;5086461;28;20020;-60
2023/07/11 01:54:40;;;;;;;5.72;3.75;;;;;;;;;;5090386;28;20481;-60
2023/07/11 01:57:07;;;;;;;3.90;3.03;;;;;;;;;;5095673;28;20031;-60
2023/07/11 01:59:33;;;;;;;5.68;3.30;;;;;;;;;;5090421;28;20056;-60
2023/07/11 02:01:59;;;;;;;5.38;3.20;;;;;;;;;;5094646;28;20030;-60
2023/07/11 02:04:25;;;;;;;3.90;3.10;;;;;;;;;;5095505;28;20051;-60
2023/07/11 02:06:51;;;;;;;4.40;3.53;;;;;;;;;;5095113;28;20020;-60
2023/07/11 02:09:18;;;;;;;5.20;3.50;;;;;;;;;;5075705;28;20021;-60
2023/07/11 02:11:44;;;;;;;4.60;3.22;;;;;;;;;;5087937;28;20032;-60
2023/07/11 02:14:13;;;;;;;5.10;2.92;;;;;;;;;;5095446;28;20028;-60
2023/07/11 02:16:39;;;;;;;3.33;2.63;;;;;;;;;;5095090;28;20066;-60
2023/07/11 02:19:05;;;;;;;4.50;2.97;;;;;;;;;;5095260;28;20449;-60
2023/07/11 02:21:31;;;;;;;4.25;2.83;;;;;;;;;;5094273;28;20058;-60
2023/07/11 02:23:56;;;;;;;4.95;2.85;;;;;;;;;;5095028;28;20020;-60
2023/07/11 02:26:23;;;;;;;4.93;3.30;;;;;;;;;;5085446;28;20028;-60
2023/07/11 02:28:49;;;;;;;7.13;3.35;;;;;;;;;;5095168;28;20469;-60
2023/07/11 02:31:15;;;;;;;4.72;3.17;;;;;;;;;;5094144;28;20024;-60
2023/07/11 02:33:41;;;;;;;4.53;3.55;;;;;;;;;;5094085;28;20028;-60
2023/07/11 02:36:06;;;;;;;3.10;2.63;;;;;;;;;;5094744;28;20020;-60
2023/07/11 02:38:32;;;;;;;4.22;3.05;;;;;;;;;;5095172;28;20085;-60
2023/07/11 02:40:58;;;;;;;3.47;2.83;;;;;;;;;;5092921;28;20028;-60
2023/07/11 02:43:24;;;;;;;3.85;2.85;;;;;;;;;;5074755;28;20038;-60
2023/07/11 02:45:51;;;;;;;2.90;2.30;;;;;;;;;;5080505;28;20012;-60
2023/07/11 02:48:17;;;;;;;4.00;2.95;;;;;;;;;;5095084;28;20023;-60
2023/07/11 02:50:43;;;;;;;3.38;2.47;;;;;;;;;;5092614;28;20032;-60
2023/07/11 02:53:09;;;;;;;4.95;3.13;;;;;;;;;;5086044;28;20025;-60
2023/07/11 02:55:39;;;;;;;3.15;2.67;;;;;;;;;;5088434;28;20028;-60
2023/07/11 02:58:04;;;;;;;4.37;3.20;;;;;;;;;;5086499;28;20021;-60
2023/07/11 03:00:30;;;;;;;5.00;3.58;;;;;;;;;;5082292;28;20032;-60
2023/07/11 03:02:57;;;;;;;14.15;3.30;;;;;;;;;;5091596;28;20382;-60
2023/07/11 03:05:23;;;;;;;6.43;3.25;;;;;;;;;;5087814;28;20435;-60
2023/07/11 03:07:49;;;;;;;4.22;3.20;;;;;;;;;;5086616;28;20025;-60
2023/07/11 03:10:15;;;;;;;4.25;2.75;;;;;;;;;;5084891;28;20032;-60
2023/07/11 03:12:41;;;;;;;4.05;3.17;;;;;;;;;;5088105;28;20058;-60
2023/07/11 03:15:07;;;;;;;4.85;3.65;;;;;;;;;;5086153;28;20116;-60
2023/07/11 03:17:33;;;;;;;6.78;4.00;;;;;;;;;;5087984;28;20033;-60
2023/07/11 03:19:59;;;;;;;5.68;3.78;;;;;;;;;;5091135;28;20023;-60
2023/07/11 03:22:25;;;;;;;5.40;3.13;;;;;;;;;;5089781;28;20388;-60
2023/07/11 03:24:54;;;;;;;3.72;2.70;;;;;;;;;;5087807;28;20119;-60
2023/07/11 03:27:20;;;;;;;4.28;3.58;;;;;;;;;;5088763;28;20099;-60
2023/07/11 03:29:45;;;;;;;4.85;3.65;;;;;;;;;;5089505;28;20111;-60
2023/07/11 03:32:11;;;;;;;4.38;3.10;;;;;;;;;;5088417;28;20032;-61
2023/07/11 03:34:37;;;;;;;7.18;3.78;;;;;;;;;;5085560;28;20027;-60
2023/07/11 03:37:04;;;;;;;4.68;3.47;;;;;;;;;;5088779;28;20055;-60
2023/07/11 03:39:29;;;;;;;7.38;4.15;;;;;;;;;;5088737;28;20024;-60
2023/07/11 03:41:55;;;;;;;4.90;3.50;;;;;;;;;;5091563;28;20105;-60
2023/07/11 03:44:21;;;;;;;5.88;3.53;;;;;;;;;;5086901;28;20020;-60
2023/07/11 03:46:47;;;;;;;4.90;3.92;;;;;;;;;;5086518;28;20558;-60
2023/07/11 03:49:13;;;;;;;4.00;3.58;;;;;;;;;;5077892;28;20028;-60
2023/07/11 03:51:39;;;;;;;5.10;3.67;;;;;;;;;;5087080;28;20386;-60
2023/07/11 03:54:05;;;;;;;4.30;3.45;;;;;;;;;;5088123;28;20082;-60
2023/07/11 03:56:31;;;;;;;5.88;3.80;;;;;;;;;;5085126;28;20382;-61
2023/07/11 03:58:57;;;;;;;4.72;3.85;;;;;;;;;;5088005;28;20024;-60
2023/07/11 04:01:23;;;;;;;5.47;3.47;;;;;;;;;;5091488;28;20020;-60
2023/07/11 04:03:49;;;;;;;3.78;3.17;;;;;;;;;;5088708;28;20024;-60
2023/07/11 04:06:15;;;;;;;5.20;3.72;;;;;;;;;;5083965;28;20024;-60
2023/07/11 04:08:41;;;;;;;4.15;3.45;;;;;;;;;;5085303;28;20352;-60
2023/07/11 04:11:07;;;;;;;5.40;3.72;;;;;;;;;;5088176;28;20424;-60
2023/07/11 04:13:33;;;;;;;4.60;3.78;;;;;;;;;;5081186;28;20024;-60
2023/07/11 04:15:59;;;;;;;7.75;4.22;;;;;;;;;;5086433;28;20024;-60
2023/07/11 04:18:25;;;;;;;4.00;3.50;;;;;;;;;;5086751;28;20024;-60
2023/07/11 04:20:50;;;;;;;4.35;3.83;;;;;;;;;;5077760;28;20029;-60
2023/07/11 04:23:17;;;;;;;5.13;3.78;;;;;;;;;;5085727;28;20029;-60
2023/07/11 04:25:42;;;;;;;3.42;3.05;;;;;;;;;;5088229;28;20020;-60
2023/07/11 04:28:08;;;;;;;5.07;3.97;;;;;;;;;;5086268;28;20083;-60
2023/07/11 04:30:35;;;;;;;5.43;4.30;;;;;;;;;;5087132;28;20020;-60
2023/07/11 04:33:01;;;;;;;4.90;4.03;;;;;;;;;;5086640;28;20055;-60
2023/07/11 04:35:27;;;;;;;8.20;3.17;;;;;;;;;;5087477;28;20044;-60
2023/07/11 04:37:53;;;;;;;4.10;3.22;;;;;;;;;;5088017;28;20177;-60
2023/07/11 04:40:19;;;;;;;5.72;3.88;;;;;;;;;;5085251;28;20508;-60
2023/07/11 04:42:45;;;;;;;3.53;3.20;;;;;;;;;;5082573;28;20021;-60
2023/07/11 04:45:11;;;;;;;5.55;3.50;;;;;;;;;;5089443;28;20485;-60
2023/07/11 04:47:37;;;;;;;4.30;3.55;;;;;;;;;;5084440;28;20065;-60
2023/07/11 04:50:03;;;;;;;4.53;3.00;;;;;;;;;;5085033;28;20439;-59
2023/07/11 04:52:29;;;;;;;5.63;3.95;;;;;;;;;;5078290;28;20044;-60
2023/07/11 04:54:56;;;;;;;5.72;3.45;;;;;;;;;;5086786;28;20439;-60
2023/07/11 04:57:22;;;;;;;4.63;3.58;;;;;;;;;;5084879;28;20035;-60
2023/07/11 04:59:48;;;;;;;4.07;3.33;;;;;;;;;;5084140;28;20081;-60
2023/07/11 05:02:14;;;;;;;4.57;3.85;;;;;;;;;;5088702;28;20032;-60
2023/07/11 05:04:40;;;;;;;4.50;3.55;;;;;;;;;;5076310;28;20370;-61
2023/07/11 05:07:07;;;;;;;7.32;4.05;;;;;;;;;;5083638;28;20084;-60
2023/07/11 05:09:33;;;;;;;3.80;3.25;;;;;;;;;;5082020;28;20028;-60
2023/07/11 05:12:00;;;;;;;5.78;4.00;;;;;;;;;;5087076;28;20024;-60
2023/07/11 05:14:27;;;;;;;4.13;3.13;;;;;;;;;;5077022;28;20034;-60
2023/07/11 05:16:53;;;;;;;5.82;4.43;;;;;;;;;;5081395;28;20479;-60
2023/07/11 05:19:19;;;;;;;6.93;4.20;;;;;;;;;;5083943;28;20108;-60
2023/07/11 05:21:45;;;;;;;4.75;4.07;;;;;;;;;;5083186;28;20047;-60
2023/07/11 05:24:16;;;;;;;5.43;3.72;;;;;;;;;;5085060;28;20028;-61
2023/07/11 05:26:42;;;;;;;4.88;3.65;;;;;;;;;;5082775;28;20036;-61
2023/07/11 05:29:08;;;;;;;5.10;3.92;;;;;;;;;;5085894;28;20037;-61
2023/07/11 05:31:34;;;;;;;5.65;3.95;;;;;;;;;;5076989;28;21102;-59
2023/07/11 05:34:00;;;;;;;5.88;3.78;;;;;;;;;;5078677;28;20485;-60
2023/07/11 05:38:56;;;;;;;5.72;4.20;;;;;;;;;;5088525;28;20111;-61
2023/07/11 05:41:22;;;;;;;4.65;3.33;;;;;;;;;;5085427;28;20032;-61
2023/07/11 05:43:51;;;;;;;4.20;3.65;;;;;;;;;;5085248;28;20377;-61
2023/07/11 05:46:17;;;;;;;4.88;3.40;;;;;;;;;;5085713;28;20067;-61
2023/07/11 05:48:43;;;;;;;4.63;4.22;;;;;;;;;;5077485;28;20118;-61
2023/07/11 05:51:14;;;;;;;5.93;4.10;;;;;;;;;;5085022;28;20061;-61
2023/07/11 05:53:40;;;;;;;5.82;3.85;;;;;;;;;;5080184;28;20055;-61
2023/07/11 05:56:06;;;;;;;4.90;3.55;;;;;;;;;;5083832;28;20024;-61
2023/07/11 05:58:33;;;;;;;3.67;3.13;;;;;;;;;;5077681;28;20028;-61
2023/07/11 06:00:59;;;;;;;7.07;3.83;;;;;;;;;;5088528;28;20039;-61
2023/07/11 06:03:26;;;;;;;5.78;4.30;;;;;;;;;;5083442;28;20533;-61
2023/07/11 06:05:53;;;;;;;4.45;3.83;;;;;;;;;;5082465;28;20028;-61
2023/07/11 06:08:19;;;;;;;5.45;4.22;;;;;;;;;;5085169;28;20078;-61
2023/07/11 06:10:45;;;;;;;9.10;3.88;;;;;;;;;;5077398;28;20028;-61
2023/07/11 06:13:12;;;;;;;5.88;3.80;;;;;;;;;;5076506;28;20024;-61
2023/07/11 06:15:38;;;;;;;5.68;3.67;;;;;;;;;;5082392;28;20124;-61
2023/07/11 06:18:05;;;;;;;4.93;3.80;;;;;;;;;;5086117;28;20408;-61
2023/07/11 06:20:31;;;;;;;7.88;3.33;;;;;;;;;;5082860;28;20028;-61
2023/07/11 06:22:57;;;;;;;4.90;4.18;;;;;;;;;;5077429;28;20119;-61
2023/07/11 06:25:23;;;;;;;7.03;4.72;;;;;;;;;;5086681;28;20453;-61
2023/07/11 06:27:49;;;;;;;5.82;3.67;;;;;;;;;;5086574;28;20076;-61
2023/07/11 06:30:15;;;;;;;3.80;3.15;;;;;;;;;;5080220;28;20021;-61
2023/07/11 06:32:41;;;;;;;7.18;3.42;;;;;;;;;;5086703;28;20032;-61
2023/07/11 06:35:07;;;;;;;4.47;3.17;;;;;;;;;;5078380;28;20032;-61
2023/07/11 06:37:33;;;;;;;9.13;3.83;;;;;;;;;;5089842;28;20110;-61
2023/07/11 06:39:59;;;;;;;4.65;3.75;;;;;;;;;;5082490;28;20052;-61
2023/07/11 06:42:25;;;;;;;7.07;3.30;;;;;;;;;;5079635;28;20081;-61
2023/07/11 06:44:51;;;;;;;5.28;3.88;;;;;;;;;;5089722;28;20016;-61
2023/07/11 06:47:17;;;;;;;4.30;3.58;;;;;;;;;;5087414;28;20063;-61
2023/07/11 06:49:43;;;;;;;5.25;3.28;;;;;;;;;;5083384;28;20442;-61
2023/07/11 06:52:10;;;;;;;4.47;4.00;;;;;;;;;;5090197;28;20028;-61
2023/07/11 06:54:36;;;;;;;5.07;3.55;;;;;;;;;;5089360;28;20047;-61
2023/07/11 06:57:02;;;;;;;9.80;3.15;;;;;;;;;;5085173;28;20525;-61
2023/07/11 06:59:27;;;;;;;5.85;3.20;;;;;;;;;;5082211;28;20032;-61
2023/07/11 07:01:53;;;;;;;6.32;4.05;;;;;;;;;;5081935;28;20095;-61
2023/07/11 07:04:19;;;;;;;5.20;3.95;;;;;;;;;;5080903;28;20032;-61
2023/07/11 07:06:45;;;;;;;4.40;3.55;;;;;;;;;;5087208;28;20024;-61
2023/07/11 07:09:11;;;;;;;8.38;3.45;;;;;;;;;;5089937;28;20035;-61
2023/07/11 07:11:38;;;;;;;7.05;3.25;;;;;;;;;;5082920;28;20016;-61
2023/07/11 07:14:08;;;;;;;6.65;3.55;;;;;;;;;;5080694;28;20375;-61
2023/07/11 07:16:35;;;;;;;4.63;3.25;;;;;;;;;;5082362;28;20071;-61
2023/07/11 07:19:04;;;;;;;5.05;3.58;;;;;;;;;;5088809;28;20485;-61
2023/07/11 07:21:31;;;;;;;3.95;3.53;;;;;;;;;;5084928;28;20092;-61
2023/07/11 07:23:57;;;;;;;4.57;3.13;;;;;;;;;;5089457;28;20466;-61
2023/07/11 07:26:23;;;;;;;5.15;3.72;;;;;;;;;;5087385;28;20035;-61
2023/07/11 07:28:49;;;;;;;4.07;2.88;;;;;;;;;;5080465;28;20016;-61
2023/07/11 07:31:15;;;;;;;4.45;3.58;;;;;;;;;;5085768;28;20085;-61
2023/07/11 07:33:41;;;;;;;4.35;2.92;;;;;;;;;;5079549;28;20016;-61
2023/07/11 07:36:08;;;;;;;5.25;3.70;;;;;;;;;;5085682;28;20036;-61
2023/07/11 07:38:34;;;;;;;5.32;3.70;;;;;;;;;;5084114;28;20047;-61
2023/07/11 07:41:05;;;;;;;8.20;3.92;;;;;;;;;;5095056;28;20109;-61
2023/07/11 07:43:32;;;;;;;4.55;3.22;;;;;;;;;;5092711;28;20031;-61
2023/07/11 07:45:59;;;;;;;5.18;4.63;;;;;;;;;;5093573;28;20490;-61
2023/07/11 07:48:26;;;;;;;4.57;3.65;;;;;;;;;;5086768;28;20039;-61
2023/07/11 07:50:52;;;;;;;4.45;3.50;;;;;;;;;;5092864;28;20024;-61
2023/07/11 07:53:18;;;;;;;3.83;3.08;;;;;;;;;;5093534;28;20024;-61
2023/07/11 07:55:44;;;;;;;4.10;3.40;;;;;;;;;;5087791;28;20031;-61
2023/07/11 07:58:12;;;;;;;6.80;3.63;;;;;;;;;;5093347;28;20021;-61
2023/07/11 08:00:40;;;;;;;3.67;2.88;;;;;;;;;;5087493;28;20095;-61
2023/07/11 08:03:06;;;;;;;4.20;3.67;;;;;;;;;;5083124;28;20469;-61
2023/07/11 08:05:32;;;;;;;5.30;3.10;;;;;;;;;;5085150;28;20093;-61
2023/07/11 08:07:57;;;;;;;6.55;3.85;;;;;;;;;;5084657;28;20078;-61
2023/07/11 08:10:23;;;;;;;6.47;3.88;;;;;;;;;;5092148;28;20103;-61
2023/07/11 08:12:49;;;;;;;4.50;3.40;;;;;;;;;;5093634;28;20048;-61
2023/07/11 08:15:15;;;;;;;4.57;3.53;;;;;;;;;;5092659;28;20055;-61
2023/07/11 08:17:45;;;;;;;4.10;3.28;;;;;;;;;;5093064;28;20024;-61
2023/07/11 08:20:11;;;;;;;4.90;3.88;;;;;;;;;;5087940;28;20020;-61
2023/07/11 08:22:37;;;;;;;3.78;3.22;;;;;;;;;;5092636;28;20460;-61
2023/07/11 08:25:03;;;;;;;4.53;3.60;;;;;;;;;;5093070;28;20024;-62
2023/07/11 08:27:29;;;;;;;4.15;3.63;;;;;;;;;;5092693;28;20021;-61
2023/07/11 08:29:55;;;;;;;5.00;3.85;;;;;;;;;;5092663;28;20088;-61
2023/07/11 08:32:21;;;;;;;4.43;3.63;;;;;;;;;;5086067;28;20435;-61
2023/07/11 08:34:47;;;;;;;4.80;3.78;;;;;;;;;;5091364;28;20016;-61
2023/07/11 08:37:13;;;;;;;5.40;4.15;;;;;;;;;;5092061;28;20111;-61
2023/07/11 08:39:40;;;;;;;6.57;4.28;;;;;;;;;;5090424;28;20177;-62
2023/07/11 08:42:07;;;;;;;4.18;3.53;;;;;;;;;;5087969;28;20035;-61
2023/07/11 08:44:39;;;;;;;5.43;4.13;;;;;;;;;;5092594;28;20485;-61
2023/07/11 08:47:10;;;;;;;7.03;4.13;;;;;;;;;;5081166;28;20032;-61
2023/07/11 08:49:56;;;;;;;8.32;3.45;;;;;;;;;;5092662;28;20054;-61
2023/07/11 08:52:22;;;;;;;5.72;4.05;;;;;;;;;;5085220;28;20043;-61
2023/07/11 08:55:06;;;;;;;6.15;4.00;;;;;;;;;;5092293;28;20381;-61
2023/07/11 08:57:36;;;;;;;4.38;3.97;;;;;;;;;;5092091;28;20067;-61
2023/07/11 09:00:06;;;;;;;5.70;4.53;;;;;;;;;;5091430;28;20111;-61
2023/07/11 09:02:43;;;;;;;3.80;3.40;;;;;;;;;;5092047;28;20023;-61
2023/07/11 09:05:13;;;;;;;4.80;4.30;;;;;;;;;;5092210;28;20055;-61
2023/07/11 09:07:40;;;;;;;4.82;3.85;;;;;;;;;;5092411;28;20024;-61
2023/07/11 09:10:24;;;;;;;4.60;3.92;;;;;;;;;;5091695;28;20038;-61
2023/07/11 09:12:57;;;;;;;5.45;4.03;;;;;;;;;;5071805;28;20418;-61
2023/07/11 09:15:28;;;;;;;5.20;4.40;;;;;;;;;;5078553;28;20474;-63
2023/07/11 09:18:00;;;;;;;5.55;3.83;;;;;;;;;;5091942;28;20055;-62
2023/07/11 09:20:32;;;;;;;5.63;4.18;;;;;;;;;;5090032;28;20031;-62
2023/07/11 09:23:17;;;;;;;5.07;4.22;;;;;;;;;;5092240;28;20026;-61
2023/07/11 09:25:44;;;;;;;4.88;4.07;;;;;;;;;;5091848;28;20032;-61
2023/07/11 09:28:19;;;;;;;4.32;3.70;;;;;;;;;;5090654;28;20369;-61
2023/07/11 09:30:59;;;;;;;5.65;4.65;;;;;;;;;;5090779;28;20500;-61
2023/07/11 09:33:28;;;;;;;6.47;4.00;;;;;;;;;;5082774;28;20016;-61
2023/07/11 09:35:54;;;;;;;6.43;5.32;;;;;;;;;;5082229;28;20063;-61
2023/07/11 09:38:25;;;;;;;6.10;4.90;;;;;;;;;;5092115;28;20028;-61
2023/07/11 09:40:56;;;;;;;6.40;4.32;;;;;;;;;;5078810;28;20028;-61
2023/07/11 09:43:22;;;;;;;6.35;4.25;;;;;;;;;;5075270;28;20024;-61
2023/07/11 09:45:48;;;;;;;5.75;4.10;;;;;;;;;;5076911;28;20020;-61
2023/07/11 09:48:27;;;;;;;5.68;4.38;;;;;;;;;;5087307;28;20016;-61
2023/07/11 09:51:11;;;;;;;6.28;4.63;;;;;;;;;;5084499;28;20032;-61
2023/07/11 09:53:41;;;;;;;9.75;4.40;;;;;;;;;;5095372;28;20093;-61
2023/07/11 09:56:10;;;;;;;5.03;3.53;;;;;;;;;;5102754;28;20032;-61
2023/07/11 09:58:36;;;;;;;4.03;3.60;;;;;;;;;;5092019;28;20031;-61
2023/07/11 10:01:04;;;;;;;5.90;3.97;;;;;;;;;;5090756;28;20016;-62
2023/07/11 10:03:34;;;;;;;4.50;4.03;;;;;;;;;;5092205;28;20103;-61
2023/07/11 10:06:00;;;;;;;7.65;4.38;;;;;;;;;;5090995;28;20044;-62
2023/07/11 10:08:31;;;;;;;4.38;3.97;;;;;;;;;;5081664;28;20062;-61
2023/07/11 10:11:02;;;;;;;4.85;4.15;;;;;;;;;;5080763;28;20024;-61
2023/07/11 10:13:28;;;;;;;5.75;4.55;;;;;;;;;;5080486;28;20048;-62
2023/07/11 10:15:55;;;;;;;4.78;4.28;;;;;;;;;;5092457;28;20032;-61
2023/07/11 10:18:29;;;;;;;6.22;4.28;;;;;;;;;;5095633;28;20087;-61
2023/07/11 10:21:01;;;;;;;5.70;4.00;;;;;;;;;;5093955;28;20016;-62
2023/07/11 10:23:27;;;;;;;4.75;4.15;;;;;;;;;;5086203;28;20016;-62
2023/07/11 10:26:04;;;;;;;6.72;4.68;;;;;;;;;;5092446;28;20060;-61
2023/07/11 10:28:34;;;;;;;7.32;4.35;;;;;;;;;;5083613;28;20461;-61
2023/07/11 10:31:05;;;;;;;7.38;4.32;;;;;;;;;;5094050;28;20028;-61
2023/07/11 10:33:33;;;;;;;5.55;4.22;;;;;;;;;;5084485;28;20025;-61
2023/07/11 10:36:07;;;;;;;4.97;4.47;;;;;;;;;;5081683;28;20115;-61
2023/07/11 10:38:54;;;;;;;3.85;3.42;;;;;;;;;;5095380;28;20029;-61
2023/07/11 10:41:40;;;;;;;4.40;3.80;;;;;;;;;;5082155;28;20539;-61
2023/07/11 10:44:12;;;;;;;4.72;3.78;;;;;;;;;;5092407;28;20058;-61
2023/07/11 10:46:41;;;;;;;5.43;4.50;;;;;;;;;;5094110;28;20076;-61
2023/07/11 10:49:12;;;;;;;6.67;4.50;;;;;;;;;;5095038;28;20032;-61
2023/07/11 10:52:04;;;;;;;5.80;4.47;;;;;;;;;;5091748;28;20484;-61
2023/07/11 10:54:42;;;;;;;5.22;4.25;;;;;;;;;;5085037;28;20468;-61
2023/07/11 10:57:34;;;;;;;5.57;4.45;;;;;;;;;;5094485;28;20037;-61
2023/07/11 11:00:00;;;;;;;4.05;3.50;;;;;;;;;;5071021;28;20088;-61
2023/07/11 11:02:45;;;;;;;4.53;4.05;;;;;;;;;;5093698;28;20531;-61
2023/07/11 11:05:29;;;;;;;7.43;4.03;;;;;;;;;;5094488;28;20520;-61
2023/07/11 11:08:00;;;;;;;5.00;4.00;;;;;;;;;;5093177;28;20020;-62
2023/07/11 11:10:35;;;;;;;5.07;4.57;;;;;;;;;;5093473;28;20069;-60
2023/07/11 11:13:04;;;;;;;5.00;4.50;;;;;;;;;;5094499;28;20048;-60
2023/07/11 11:15:36;;;;;;;4.65;4.05;;;;;;;;;;5081110;28;20241;-61
2023/07/11 11:18:28;;;;;;;5.15;4.65;;;;;;;;;;5094568;28;20035;-60
2023/07/11 11:21:03;;;;;;;6.38;4.38;;;;;;;;;;5092481;28;20427;-61
2023/07/11 11:23:36;;;;;;;5.13;4.50;;;;;;;;;;5094071;28;20077;-60
2023/07/11 11:26:10;;;;;;;5.18;4.03;;;;;;;;;;5094171;28;20612;-60
2023/07/11 11:28:42;;;;;;;6.07;4.38;;;;;;;;;;5094393;28;20098;-61
2023/07/11 11:31:25;;;;;;;4.13;3.67;;;;;;;;;;5093135;28;20016;-61
2023/07/11 11:34:08;;;;;;;8.18;5.07;;;;;;;;;;5093983;28;20020;-60
2023/07/11 11:36:50;;;;;;;5.18;4.68;;;;;;;;;;5088366;28;20028;-60
2023/07/11 11:39:19;;;;;;;5.10;4.60;;;;;;;;;;5073781;28;20456;-60
2023/07/11 11:41:48;;;;;;;6.20;5.07;;;;;;;;;;5085985;28;20036;-60
2023/07/11 11:44:16;;;;;;;5.35;4.15;;;;;;;;;;5093878;28;20276;-61
2023/07/11 11:46:43;;;;;;;5.68;5.03;;;;;;;;;;5093578;28;20040;-60
2023/07/11 11:49:09;;;;;;;5.03;4.53;;;;;;;;;;5081450;28;20114;-61
2023/07/11 11:51:36;;;;;;;10.27;4.03;;;;;;;;;;5090362;28;20526;-60
2023/07/11 11:54:04;;;;;;;6.35;5.35;;;;;;;;;;5093637;28;20028;-60
2023/07/11 11:56:30;;;;;;;7.93;5.30;;;;;;;;;;5092969;28;20020;-60
2023/07/11 11:59:06;;;;;;;5.50;4.70;;;;;;;;;;5093640;28;20028;-60
2023/07/11 12:01:58;;;;;;;5.85;4.65;;;;;;;;;;5092466;28;20031;-61
2023/07/11 12:04:28;;;;;;;8.93;5.38;;;;;;;;;;5087959;28;20048;-60
2023/07/11 12:07:09;;;;;;;5.25;4.75;;;;;;;;;;5092721;28;20106;-61
2023/07/11 12:09:40;;;;;;;4.95;4.30;;;;;;;;;;5093413;28;20036;-60
2023/07/11 12:12:06;;;;;;;5.65;4.20;;;;;;;;;;5092334;28;20066;-60
2023/07/11 12:14:39;;;;;;;5.32;4.68;;;;;;;;;;5086585;28;20020;-60
2023/07/11 12:17:05;;;;;;;5.50;4.88;;;;;;;;;;5091556;28;20039;-61
2023/07/11 12:19:33;;;;;;;5.93;4.50;;;;;;;;;;5081992;28;20055;-61
2023/07/11 12:22:01;;;;;;;4.82;4.13;;;;;;;;;;5089550;28;20023;-60
2023/07/11 12:24:33;;;;;;;6.13;4.95;;;;;;;;;;5092909;28;20111;-60
2023/07/11 12:27:19;;;;;;;7.72;4.13;;;;;;;;;;5092054;28;20024;-60
2023/07/11 12:29:48;;;;;;;5.45;4.53;;;;;;;;;;5071203;28;20418;-60
2023/07/11 12:32:29;;;;;;;5.88;4.65;;;;;;;;;;5081725;28;20024;-60
2023/07/11 12:34:56;;;;;;;5.18;4.32;;;;;;;;;;5091104;28;20020;-60
2023/07/11 12:37:24;;;;;;;4.90;4.07;;;;;;;;;;5091077;28;20047;-60
2023/07/11 12:40:11;;;;;;;5.70;4.38;;;;;;;;;;5092564;28;20043;-60
2023/07/11 12:42:39;;;;;;;7.00;4.22;;;;;;;;;;5092261;28;20038;-60
2023/07/11 12:45:14;;;;;;;4.85;4.05;;;;;;;;;;5092873;28;20016;-60
2023/07/11 12:47:41;;;;;;;6.93;4.15;;;;;;;;;;5084228;28;20024;-60
2023/07/11 12:50:17;;;;;;;8.30;4.32;;;;;;;;;;5092115;28;20016;-60
2023/07/11 12:52:43;;;;;;;5.20;4.15;;;;;;;;;;5092635;28;20055;-60
2023/07/11 12:55:12;;;;;;;7.00;4.60;;;;;;;;;;5083123;28;20059;-60
2023/07/11 12:57:44;;;;;;;8.77;4.57;;;;;;;;;;5092315;28;20145;-60
2023/07/11 13:00:21;;;;;;;4.97;4.38;;;;;;;;;;5084296;28;20062;-61
2023/07/11 13:02:47;;;;;;;4.43;3.75;;;;;;;;;;5092021;28;20086;-60
2023/07/11 13:05:13;;;;;;;4.82;4.32;;;;;;;;;;5092241;28;20024;-60
2023/07/11 13:07:41;;;;;;;6.50;4.90;;;;;;;;;;5092227;28;20027;-60
2023/07/11 13:10:18;;;;;;;6.10;5.07;;;;;;;;;;5091980;28;20024;-61
2023/07/11 13:12:44;;;;;;;5.13;4.63;;;;;;;;;;5086032;28;20024;-60
2023/07/11 13:15:15;;;;;;;5.78;4.43;;;;;;;;;;5094376;28;20024;-60
2023/07/11 13:17:41;;;;;;;4.07;3.55;;;;;;;;;;5092377;28;20039;-60
2023/07/11 13:20:14;;;;;;;5.13;4.60;;;;;;;;;;5092005;28;20055;-61
2023/07/11 13:22:41;;;;;;;5.18;4.32;;;;;;;;;;5092124;28;20027;-61
2023/07/11 13:25:27;;;;;;;4.90;3.92;;;;;;;;;;5086619;28;20035;-61
2023/07/11 13:27:52;;;;;;;5.32;4.82;;;;;;;;;;5083326;28;20468;-61
2023/07/11 13:30:23;;;;;;;5.15;4.47;;;;;;;;;;5090940;28;20022;-61
2023/07/11 13:32:53;;;;;;;5.95;4.10;;;;;;;;;;5069770;28;20494;-60
2023/07/11 13:35:19;;;;;;;5.15;4.53;;;;;;;;;;5076575;28;20032;-60
2023/07/11 13:37:47;;;;;;;5.28;4.18;;;;;;;;;;5083426;28;20032;-60
2023/07/11 13:40:51;;;;;;;5.82;4.40;;;;;;;;;;5084738;28;20152;-60
2023/07/11 13:43:21;;;;;;;5.25;4.10;;;;;;;;;;5037075;28;20076;-60
2023/07/11 13:45:49;;;;;;;8.95;4.88;;;;;;;;;;5035434;28;20040;-60
2023/07/11 13:48:27;;;;;;;5.13;4.30;;;;;;;;;;5067617;28;20044;-60
2023/07/11 13:51:06;;;;;;;6.50;4.40;;;;;;;;;;5095892;28;20131;-60
2023/07/11 13:53:35;;;;;;;7.32;4.30;;;;;;;;;;5089246;28;20114;-61
2023/07/11 13:56:01;;;;;;;6.22;4.65;;;;;;;;;;5094089;28;20533;-61
2023/07/11 13:58:29;;;;;;;4.43;4.00;;;;;;;;;;5086346;28;20032;-61
2023/07/11 14:00:55;;;;;;;6.47;4.70;;;;;;;;;;5095274;28;20020;-61
2023/07/11 14:03:23;;;;;;;6.57;4.63;;;;;;;;;;5098356;28;20034;-61
2023/07/11 14:05:50;;;;;;;9.07;4.00;;;;;;;;;;5087721;28;20024;-61
2023/07/11 14:08:19;;;;;;;4.78;4.35;;;;;;;;;;5083033;28;20017;-61
2023/07/11 14:10:46;;;;;;;6.93;3.75;;;;;;;;;;5093659;28;20031;-61
2023/07/11 14:13:22;;;;;;;6.35;4.93;;;;;;;;;;5092896;28;20031;-61
2023/07/11 14:15:48;;;;;;;5.35;4.70;;;;;;;;;;5093828;28;20027;-61
2023/07/11 14:18:14;;;;;;;5.30;4.40;;;;;;;;;;5098092;28;20020;-61
2023/07/11 14:20:41;;;;;;;5.07;4.18;;;;;;;;;;5096285;28;20045;-61
2023/07/11 14:23:12;;;;;;;6.32;4.03;;;;;;;;;;5097811;28;20016;-61
2023/07/11 14:25:38;;;;;;;5.13;4.50;;;;;;;;;;5097473;28;20031;-61
2023/07/11 14:28:08;;;;;;;5.97;4.35;;;;;;;;;;5091199;28;20410;-61
2023/07/11 14:30:35;;;;;;;5.30;4.78;;;;;;;;;;5097141;28;20077;-61
2023/07/11 14:33:01;;;;;;;5.65;5.13;;;;;;;;;;5095745;28;20148;-60
2023/07/11 14:35:27;;;;;;;5.85;4.57;;;;;;;;;;5090889;28;20119;-60
2023/07/11 14:37:53;;;;;;;6.53;4.55;;;;;;;;;;5097592;28;20484;-60
2023/07/11 14:40:20;;;;;;;7.35;4.63;;;;;;;;;;5097003;28;20376;-61
2023/07/11 14:42:47;;;;;;;4.93;4.40;;;;;;;;;;5098011;28;20016;-60
2023/07/11 14:45:14;;;;;;;5.43;4.15;;;;;;;;;;5094565;28;20028;-61
2023/07/11 14:47:40;;;;;;;5.03;4.28;;;;;;;;;;5091007;28;20016;-61
2023/07/11 14:50:06;;;;;;;8.95;5.53;;;;;;;;;;5093912;28;20016;-61
2023/07/11 14:52:32;;;;;;;5.90;4.95;;;;;;;;;;5094296;28;20245;-60
2023/07/11 14:54:59;;;;;;;6.20;4.50;;;;;;;;;;5087061;28;20051;-60